الصفحة الرئيسية
METAR-TAF:

METAR-TAF

مطار :

بیرجند, إيران

دائرة عرض: 32-52N, خط طول: 059-12E, ارتفاع: 1491 متر

مراقبة الطقس الحالي

تاريخ ووقت الإصدار 1ساعة و 4 دقيقة قبل الساعة 09:00UTC
ريح 10 عقدة من الشرق/الشمال الشرقي
درجة الحرارة 34°درجة مئوية
الرطوبة 9%
ضغط 1012 hPa
الرؤية 10 كم أو أكثر
الغيوم لا تقل 1500 م ولا وجود لمزنة ركامية السحاب الأسود

METAR: OIMB 140900Z 06010KT CAVOK 34/M04 Q1011 A2987

زمن: 14:34 (10:04 UTC)


TAF: مفقودة

أرصاد الطقس والتوقعات من أكثر من 4000 مطار (تقارير الطقس للمطار METAR والتنبؤ بالطقس بالمطارTAF).

المحطات المتاحة هي النقط الصفراء والحمراء على الخريطة.

حرك المؤشر فوق النقطة لمعرفة اسم المحطة.

ثم انقر لمعرفة أرصاد وتوقعات الطقس.

لتغيير الخارطة: اضغط على الأزرار الخضراء مع رمز الصليب الأسود للتكبير. على الزر الأخضر مع شرطة للتصغير، أو على الأسهم الخضراء للخرائط المجاورة.


METAR-TAF: